sensor_id;sensor_type;location;lat;lon;timestamp;temperature;humidity
71206;SHT31;58935;54.498;18.544;2023-10-13T00:00:41;10.12;76.87
71206;SHT31;58935;54.498;18.544;2023-10-13T00:03:07;10.07;77.03
71206;SHT31;58935;54.498;18.544;2023-10-13T00:05:40;10.02;77.15
71206;SHT31;58935;54.498;18.544;2023-10-13T00:08:07;9.98;77.37
71206;SHT31;58935;54.498;18.544;2023-10-13T00:10:33;9.95;77.60
71206;SHT31;58935;54.498;18.544;2023-10-13T00:12:59;9.92;77.60
71206;SHT31;58935;54.498;18.544;2023-10-13T00:15:28;9.90;77.67
71206;SHT31;58935;54.498;18.544;2023-10-13T00:17:53;9.87;77.92
71206;SHT31;58935;54.498;18.544;2023-10-13T00:20:20;9.84;78.05
71206;SHT31;58935;54.498;18.544;2023-10-13T00:22:49;9.80;78.37
71206;SHT31;58935;54.498;18.544;2023-10-13T00:25:14;9.78;78.32
71206;SHT31;58935;54.498;18.544;2023-10-13T00:27:44;9.77;78.34
71206;SHT31;58935;54.498;18.544;2023-10-13T00:30:09;9.77;78.43
71206;SHT31;58935;54.498;18.544;2023-10-13T00:32:38;9.76;78.36
71206;SHT31;58935;54.498;18.544;2023-10-13T00:35:05;9.75;78.41
71206;SHT31;58935;54.498;18.544;2023-10-13T00:37:31;9.75;78.53
71206;SHT31;58935;54.498;18.544;2023-10-13T00:40:06;9.74;78.61
71206;SHT31;58935;54.498;18.544;2023-10-13T00:42:42;9.73;78.51
71206;SHT31;58935;54.498;18.544;2023-10-13T00:45:10;9.70;78.63
71206;SHT31;58935;54.498;18.544;2023-10-13T00:47:41;9.69;78.70
71206;SHT31;58935;54.498;18.544;2023-10-13T00:50:14;9.69;78.77
71206;SHT31;58935;54.498;18.544;2023-10-13T00:52:42;9.67;78.71
71206;SHT31;58935;54.498;18.544;2023-10-13T00:58:34;9.62;78.69
71206;SHT31;58935;54.498;18.544;2023-10-13T01:01:01;9.60;78.82
71206;SHT31;58935;54.498;18.544;2023-10-13T01:03:44;9.57;79.02
71206;SHT31;58935;54.498;18.544;2023-10-13T01:06:13;9.56;79.09
71206;SHT31;58935;54.498;18.544;2023-10-13T01:08:41;9.52;79.18
71206;SHT31;58935;54.498;18.544;2023-10-13T01:11:09;9.49;79.25
71206;SHT31;58935;54.498;18.544;2023-10-13T01:13:35;9.45;79.46
71206;SHT31;58935;54.498;18.544;2023-10-13T01:16:02;9.42;79.42
71206;SHT31;58935;54.498;18.544;2023-10-13T01:18:29;9.39;79.64
71206;SHT31;58935;54.498;18.544;2023-10-13T01:20:55;9.36;79.62
71206;SHT31;58935;54.498;18.544;2023-10-13T01:23:24;9.34;79.74
71206;SHT31;58935;54.498;18.544;2023-10-13T01:25:53;9.33;79.82
71206;SHT31;58935;54.498;18.544;2023-10-13T01:28:19;9.32;79.95
71206;SHT31;58935;54.498;18.544;2023-10-13T01:30:47;9.29;80.08
71206;SHT31;58935;54.498;18.544;2023-10-13T01:33:17;9.26;80.25
71206;SHT31;58935;54.498;18.544;2023-10-13T01:35:51;9.25;80.26
71206;SHT31;58935;54.498;18.544;2023-10-13T01:38:18;9.23;80.34
71206;SHT31;58935;54.498;18.544;2023-10-13T01:40:43;9.22;80.24
71206;SHT31;58935;54.498;18.544;2023-10-13T01:43:09;9.20;80.28
71206;SHT31;58935;54.498;18.544;2023-10-13T01:45:36;9.20;80.31
71206;SHT31;58935;54.498;18.544;2023-10-13T01:48:14;9.20;80.39
71206;SHT31;58935;54.498;18.544;2023-10-13T01:50:44;9.18;80.36
71206;SHT31;58935;54.498;18.544;2023-10-13T01:53:12;9.16;80.32
71206;SHT31;58935;54.498;18.544;2023-10-13T01:55:39;9.15;80.48
71206;SHT31;58935;54.498;18.544;2023-10-13T01:58:15;9.15;80.55
71206;SHT31;58935;54.498;18.544;2023-10-13T02:00:41;9.17;80.45
71206;SHT31;58935;54.498;18.544;2023-10-13T02:03:09;9.17;80.39
71206;SHT31;58935;54.498;18.544;2023-10-13T02:05:43;9.17;80.29
71206;SHT31;58935;54.498;18.544;2023-10-13T02:08:12;9.17;80.29
71206;SHT31;58935;54.498;18.544;2023-10-13T02:10:43;9.15;80.54
71206;SHT31;58935;54.498;18.544;2023-10-13T02:13:12;9.11;80.62
71206;SHT31;58935;54.498;18.544;2023-10-13T02:15:42;9.09;80.69
71206;SHT31;58935;54.498;18.544;2023-10-13T02:18:09;9.07;80.77
71206;SHT31;58935;54.498;18.544;2023-10-13T02:20:36;9.05;80.84
71206;SHT31;58935;54.498;18.544;2023-10-13T02:23:08;9.06;80.82
71206;SHT31;58935;54.498;18.544;2023-10-13T02:25:35;9.04;80.91
71206;SHT31;58935;54.498;18.544;2023-10-13T02:28:05;9.05;80.91
71206;SHT31;58935;54.498;18.544;2023-10-13T02:30:40;9.03;80.80
71206;SHT31;58935;54.498;18.544;2023-10-13T02:33:10;9.03;80.80
71206;SHT31;58935;54.498;18.544;2023-10-13T02:35:37;9.01;80.91
71206;SHT31;58935;54.498;18.544;2023-10-13T02:38:06;9.00;81.15
71206;SHT31;58935;54.498;18.544;2023-10-13T02:40:36;9.00;81.18
71206;SHT31;58935;54.498;18.544;2023-10-13T02:43:03;8.98;81.14
71206;SHT31;58935;54.498;18.544;2023-10-13T02:45:30;8.98;81.16
71206;SHT31;58935;54.498;18.544;2023-10-13T02:47:57;8.96;81.23
71206;SHT31;58935;54.498;18.544;2023-10-13T02:50:25;8.95;81.22
71206;SHT31;58935;54.498;18.544;2023-10-13T02:52:50;8.94;81.21
71206;SHT31;58935;54.498;18.544;2023-10-13T02:55:17;8.91;81.24
71206;SHT31;58935;54.498;18.544;2023-10-13T02:57:50;8.88;81.32
71206;SHT31;58935;54.498;18.544;2023-10-13T03:00:20;8.86;81.34
71206;SHT31;58935;54.498;18.544;2023-10-13T03:02:48;8.83;81.41
71206;SHT31;58935;54.498;18.544;2023-10-13T03:05:23;8.81;81.58
71206;SHT31;58935;54.498;18.544;2023-10-13T03:07:49;8.79;81.58
71206;SHT31;58935;54.498;18.544;2023-10-13T03:10:15;8.79;81.61
71206;SHT31;58935;54.498;18.544;2023-10-13T03:12:44;8.79;81.73
71206;SHT31;58935;54.498;18.544;2023-10-13T03:15:13;8.79;81.67
71206;SHT31;58935;54.498;18.544;2023-10-13T03:17:43;8.77;81.69
71206;SHT31;58935;54.498;18.544;2023-10-13T03:20:09;8.76;81.70
71206;SHT31;58935;54.498;18.544;2023-10-13T03:22:40;8.74;81.64
71206;SHT31;58935;54.498;18.544;2023-10-13T03:25:09;8.72;81.53
71206;SHT31;58935;54.498;18.544;2023-10-13T03:27:42;8.70;81.39
71206;SHT31;58935;54.498;18.544;2023-10-13T03:30:11;8.67;81.26
71206;SHT31;58935;54.498;18.544;2023-10-13T03:32:40;8.63;81.20
71206;SHT31;58935;54.498;18.544;2023-10-13T03:35:11;8.59;81.21
71206;SHT31;58935;54.498;18.544;2023-10-13T03:37:48;8.56;81.26
71206;SHT31;58935;54.498;18.544;2023-10-13T03:40:14;8.55;81.35
71206;SHT31;58935;54.498;18.544;2023-10-13T03:42:42;8.52;81.58
71206;SHT31;58935;54.498;18.544;2023-10-13T03:45:07;8.50;81.60
71206;SHT31;58935;54.498;18.544;2023-10-13T03:47:35;8.47;81.60
71206;SHT31;58935;54.498;18.544;2023-10-13T03:50:03;8.47;81.64
71206;SHT31;58935;54.498;18.544;2023-10-13T03:52:33;8.45;81.63
71206;SHT31;58935;54.498;18.544;2023-10-13T03:55:01;8.45;81.60
71206;SHT31;58935;54.498;18.544;2023-10-13T03:57:30;8.44;81.62
71206;SHT31;58935;54.498;18.544;2023-10-13T03:59:58;8.43;81.62
71206;SHT31;58935;54.498;18.544;2023-10-13T04:02:30;8.41;81.67
71206;SHT31;58935;54.498;18.544;2023-10-13T04:04:56;8.39;81.69
71206;SHT31;58935;54.498;18.544;2023-10-13T04:07:22;8.38;81.70
71206;SHT31;58935;54.498;18.544;2023-10-13T04:09:50;8.36;81.77
71206;SHT31;58935;54.498;18.544;2023-10-13T04:12:15;8.35;81.80
71206;SHT31;58935;54.498;18.544;2023-10-13T04:14:51;8.34;81.79
71206;SHT31;58935;54.498;18.544;2023-10-13T04:17:19;8.34;81.85
71206;SHT31;58935;54.498;18.544;2023-10-13T04:19:48;8.32;81.81
71206;SHT31;58935;54.498;18.544;2023-10-13T04:22:17;8.31;81.73
71206;SHT31;58935;54.498;18.544;2023-10-13T04:24:47;8.28;81.80
71206;SHT31;58935;54.498;18.544;2023-10-13T04:27:17;8.27;81.81
71206;SHT31;58935;54.498;18.544;2023-10-13T04:30:02;8.25;81.93
71206;SHT31;58935;54.498;18.544;2023-10-13T04:32:28;8.25;82.08
71206;SHT31;58935;54.498;18.544;2023-10-13T04:34:55;8.25;82.13
71206;SHT31;58935;54.498;18.544;2023-10-13T04:37:26;8.27;82.12
71206;SHT31;58935;54.498;18.544;2023-10-13T04:39:55;8.27;82.05
71206;SHT31;58935;54.498;18.544;2023-10-13T04:42:35;8.27;81.93
71206;SHT31;58935;54.498;18.544;2023-10-13T04:45:03;8.27;81.99
71206;SHT31;58935;54.498;18.544;2023-10-13T04:47:41;8.25;82.05
71206;SHT31;58935;54.498;18.544;2023-10-13T04:50:22;8.24;82.01
71206;SHT31;58935;54.498;18.544;2023-10-13T04:52:52;8.23;81.98
71206;SHT31;58935;54.498;18.544;2023-10-13T04:55:20;8.22;81.95
71206;SHT31;58935;54.498;18.544;2023-10-13T04:57:49;8.21;81.97
71206;SHT31;58935;54.498;18.544;2023-10-13T05:00:25;8.20;81.99
71206;SHT31;58935;54.498;18.544;2023-10-13T05:02:54;8.20;82.01
71206;SHT31;58935;54.498;18.544;2023-10-13T05:05:41;8.19;82.08
71206;SHT31;58935;54.498;18.544;2023-10-13T05:08:10;8.20;82.23
71206;SHT31;58935;54.498;18.544;2023-10-13T05:10:39;8.21;82.30
71206;SHT31;58935;54.498;18.544;2023-10-13T05:13:07;8.21;82.31
71206;SHT31;58935;54.498;18.544;2023-10-13T05:15:42;8.22;82.31
71206;SHT31;58935;54.498;18.544;2023-10-13T05:18:11;8.23;82.30
71206;SHT31;58935;54.498;18.544;2023-10-13T05:20:39;8.24;82.41
71206;SHT31;58935;54.498;18.544;2023-10-13T05:23:24;8.27;82.48
71206;SHT31;58935;54.498;18.544;2023-10-13T05:25:53;8.30;82.51
71206;SHT31;58935;54.498;18.544;2023-10-13T05:28:21;8.35;82.50
71206;SHT31;58935;54.498;18.544;2023-10-13T05:30:50;8.36;82.42
71206;SHT31;58935;54.498;18.544;2023-10-13T05:33:18;8.40;82.49
71206;SHT31;58935;54.498;18.544;2023-10-13T05:35:46;8.46;82.56
71206;SHT31;58935;54.498;18.544;2023-10-13T05:38:14;8.51;82.37
71206;SHT31;58935;54.498;18.544;2023-10-13T05:43:22;8.58;82.05
71206;SHT31;58935;54.498;18.544;2023-10-13T05:45:50;8.61;81.92
71206;SHT31;58935;54.498;18.544;2023-10-13T05:48:18;8.65;81.93
71206;SHT31;58935;54.498;18.544;2023-10-13T05:51:00;8.70;81.81
71206;SHT31;58935;54.498;18.544;2023-10-13T05:53:28;8.73;81.72
71206;SHT31;58935;54.498;18.544;2023-10-13T05:55:59;8.77;81.69
71206;SHT31;58935;54.498;18.544;2023-10-13T05:58:28;8.82;81.58
71206;SHT31;58935;54.498;18.544;2023-10-13T06:00:57;8.83;81.34
71206;SHT31;58935;54.498;18.544;2023-10-13T06:03:25;8.83;81.22
71206;SHT31;58935;54.498;18.544;2023-10-13T06:05:54;8.84;81.20
71206;SHT31;58935;54.498;18.544;2023-10-13T06:08:22;8.84;81.10
71206;SHT31;58935;54.498;18.544;2023-10-13T06:11:00;8.85;81.09
71206;SHT31;58935;54.498;18.544;2023-10-13T06:13:29;8.87;81.02
71206;SHT31;58935;54.498;18.544;2023-10-13T06:15:57;8.85;80.90
71206;SHT31;58935;54.498;18.544;2023-10-13T06:18:25;8.87;80.94
71206;SHT31;58935;54.498;18.544;2023-10-13T06:20:54;8.87;80.96
71206;SHT31;58935;54.498;18.544;2023-10-13T06:23:22;8.88;80.84
71206;SHT31;58935;54.498;18.544;2023-10-13T06:25:51;8.89;80.85
71206;SHT31;58935;54.498;18.544;2023-10-13T06:28:20;8.93;80.92
71206;SHT31;58935;54.498;18.544;2023-10-13T06:33:21;9.02;80.80
71206;SHT31;58935;54.498;18.544;2023-10-13T06:35:50;9.06;80.71
71206;SHT31;58935;54.498;18.544;2023-10-13T06:38:16;9.09;80.61
71206;SHT31;58935;54.498;18.544;2023-10-13T06:40:46;9.13;80.52
71206;SHT31;58935;54.498;18.544;2023-10-13T06:43:13;9.17;80.49
71206;SHT31;58935;54.498;18.544;2023-10-13T06:45:42;9.23;80.37
71206;SHT31;58935;54.498;18.544;2023-10-13T06:48:15;9.28;80.36
71206;SHT31;58935;54.498;18.544;2023-10-13T06:53:13;9.40;80.07
71206;SHT31;58935;54.498;18.544;2023-10-13T06:55:38;9.45;79.92
71206;SHT31;58935;54.498;18.544;2023-10-13T06:58:06;9.51;79.83
71206;SHT31;58935;54.498;18.544;2023-10-13T07:00:32;9.58;79.68
71206;SHT31;58935;54.498;18.544;2023-10-13T07:03:00;9.64;79.56
71206;SHT31;58935;54.498;18.544;2023-10-13T07:05:29;9.71;79.39
71206;SHT31;58935;54.498;18.544;2023-10-13T07:13:03;9.93;79.16
71206;SHT31;58935;54.498;18.544;2023-10-13T07:15:35;10.03;78.97
71206;SHT31;58935;54.498;18.544;2023-10-13T07:20:48;10.24;78.64
71206;SHT31;58935;54.498;18.544;2023-10-13T07:23:15;10.36;78.29
71206;SHT31;58935;54.498;18.544;2023-10-13T07:28:17;10.54;77.70
71206;SHT31;58935;54.498;18.544;2023-10-13T07:30:42;10.62;77.41
71206;SHT31;58935;54.498;18.544;2023-10-13T07:33:11;10.69;77.17
71206;SHT31;58935;54.498;18.544;2023-10-13T07:35:38;10.73;76.96
71206;SHT31;58935;54.498;18.544;2023-10-13T07:38:04;10.79;76.81
71206;SHT31;58935;54.498;18.544;2023-10-13T07:40:33;10.87;76.71
71206;SHT31;58935;54.498;18.544;2023-10-13T07:42:58;10.95;76.56
71206;SHT31;58935;54.498;18.544;2023-10-13T07:45:27;11.03;76.30
71206;SHT31;58935;54.498;18.544;2023-10-13T07:48:01;11.11;75.96
71206;SHT31;58935;54.498;18.544;2023-10-13T07:58:28;11.51;75.31
71206;SHT31;58935;54.498;18.544;2023-10-13T08:06:05;11.82;74.61
71206;SHT31;58935;54.498;18.544;2023-10-13T08:19:13;12.46;72.79
71206;SHT31;58935;54.498;18.544;2023-10-13T08:24:16;12.71;72.09
71206;SHT31;58935;54.498;18.544;2023-10-13T08:26:50;12.82;71.56
71206;SHT31;58935;54.498;18.544;2023-10-13T08:29:18;12.93;71.19
71206;SHT31;58935;54.498;18.544;2023-10-13T08:31:45;13.04;70.96
71206;SHT31;58935;54.498;18.544;2023-10-13T08:34:14;13.14;70.52
71206;SHT31;58935;54.498;18.544;2023-10-13T08:36:49;13.23;69.99
71206;SHT31;58935;54.498;18.544;2023-10-13T08:39:14;13.31;69.49
71206;SHT31;58935;54.498;18.544;2023-10-13T08:41:42;13.39;69.33
71206;SHT31;58935;54.498;18.544;2023-10-13T08:44:24;13.48;68.99
71206;SHT31;58935;54.498;18.544;2023-10-13T08:46:56;13.54;68.54
71206;SHT31;58935;54.498;18.544;2023-10-13T08:49:25;13.61;68.75
71206;SHT31;58935;54.498;18.544;2023-10-13T08:51:54;13.69;68.21
71206;SHT31;58935;54.498;18.544;2023-10-13T08:54:24;13.77;67.89
71206;SHT31;58935;54.498;18.544;2023-10-13T08:56:54;13.85;67.47
71206;SHT31;58935;54.498;18.544;2023-10-13T08:59:21;13.91;66.56
71206;SHT31;58935;54.498;18.544;2023-10-13T09:02:07;13.95;66.63
71206;SHT31;58935;54.498;18.544;2023-10-13T09:04:42;13.99;66.73
71206;SHT31;58935;54.498;18.544;2023-10-13T09:07:09;14.03;66.55
71206;SHT31;58935;54.498;18.544;2023-10-13T09:09:45;14.05;66.24
71206;SHT31;58935;54.498;18.544;2023-10-13T09:12:12;14.07;65.93
71206;SHT31;58935;54.498;18.544;2023-10-13T09:14:50;14.08;65.70
71206;SHT31;58935;54.498;18.544;2023-10-13T09:17:22;14.11;65.69
71206;SHT31;58935;54.498;18.544;2023-10-13T09:19:52;14.14;65.80
71206;SHT31;58935;54.498;18.544;2023-10-13T09:22:21;14.18;65.77
71206;SHT31;58935;54.498;18.544;2023-10-13T09:24:50;14.21;65.31
71206;SHT31;58935;54.498;18.544;2023-10-13T09:27:16;14.23;65.23
71206;SHT31;58935;54.498;18.544;2023-10-13T09:29:41;14.26;65.19
71206;SHT31;58935;54.498;18.544;2023-10-13T09:32:09;14.26;65.02
71206;SHT31;58935;54.498;18.544;2023-10-13T09:34:37;14.26;64.63
71206;SHT31;58935;54.498;18.544;2023-10-13T09:37:05;14.23;64.76
71206;SHT31;58935;54.498;18.544;2023-10-13T09:39:32;14.21;64.57
71206;SHT31;58935;54.498;18.544;2023-10-13T09:42:05;14.20;64.47
71206;SHT31;58935;54.498;18.544;2023-10-13T09:44:35;14.21;64.45
71206;SHT31;58935;54.498;18.544;2023-10-13T09:47:02;14.24;64.22
71206;SHT31;58935;54.498;18.544;2023-10-13T09:49:35;14.27;64.30
71206;SHT31;58935;54.498;18.544;2023-10-13T09:52:09;14.32;64.42
71206;SHT31;58935;54.498;18.544;2023-10-13T09:54:44;14.37;64.42
71206;SHT31;58935;54.498;18.544;2023-10-13T09:57:24;14.44;64.35
71206;SHT31;58935;54.498;18.544;2023-10-13T10:00:02;14.48;64.10
71206;SHT31;58935;54.498;18.544;2023-10-13T10:02:51;14.49;63.63
71206;SHT31;58935;54.498;18.544;2023-10-13T10:05:24;14.49;63.60
71206;SHT31;58935;54.498;18.544;2023-10-13T10:10:21;14.55;63.24
71206;SHT31;58935;54.498;18.544;2023-10-13T10:15:26;14.60;63.17
71206;SHT31;58935;54.498;18.544;2023-10-13T10:17:59;14.64;63.23
71206;SHT31;58935;54.498;18.544;2023-10-13T10:20:28;14.69;63.44
71206;SHT31;58935;54.498;18.544;2023-10-13T10:22:57;14.75;63.19
71206;SHT31;58935;54.498;18.544;2023-10-13T10:27:55;14.86;63.16
71206;SHT31;58935;54.498;18.544;2023-10-13T10:32:54;14.93;62.63
71206;SHT31;58935;54.498;18.544;2023-10-13T10:35:25;14.90;62.41
71206;SHT31;58935;54.498;18.544;2023-10-13T10:37:56;14.88;62.85
71206;SHT31;58935;54.498;18.544;2023-10-13T10:40:36;14.89;62.90
71206;SHT31;58935;54.498;18.544;2023-10-13T10:43:16;14.90;63.10
71206;SHT31;58935;54.498;18.544;2023-10-13T10:48:14;14.93;62.89
71206;SHT31;58935;54.498;18.544;2023-10-13T10:50:50;14.92;62.75
71206;SHT31;58935;54.498;18.544;2023-10-13T10:53:19;14.93;63.15
71206;SHT31;58935;54.498;18.544;2023-10-13T10:55:47;14.93;63.07
71206;SHT31;58935;54.498;18.544;2023-10-13T10:58:13;14.93;63.20
71206;SHT31;58935;54.498;18.544;2023-10-13T11:01:03;14.92;63.09
71206;SHT31;58935;54.498;18.544;2023-10-13T11:03:35;14.91;63.17
71206;SHT31;58935;54.498;18.544;2023-10-13T11:06:03;14.90;63.20
71206;SHT31;58935;54.498;18.544;2023-10-13T11:08:29;14.89;63.22
71206;SHT31;58935;54.498;18.544;2023-10-13T11:10:57;14.85;63.50
71206;SHT31;58935;54.498;18.544;2023-10-13T11:13:25;14.84;63.83
71206;SHT31;58935;54.498;18.544;2023-10-13T11:15:55;14.83;63.81
71206;SHT31;58935;54.498;18.544;2023-10-13T11:18:29;14.84;64.00
71206;SHT31;58935;54.498;18.544;2023-10-13T11:21:03;14.85;64.07
71206;SHT31;58935;54.498;18.544;2023-10-13T11:23:32;14.87;64.36
71206;SHT31;58935;54.498;18.544;2023-10-13T11:26:01;14.90;64.47
71206;SHT31;58935;54.498;18.544;2023-10-13T11:28:28;14.90;64.68
71206;SHT31;58935;54.498;18.544;2023-10-13T11:30:54;14.92;65.00
71206;SHT31;58935;54.498;18.544;2023-10-13T11:33:23;14.93;65.19
71206;SHT31;58935;54.498;18.544;2023-10-13T11:35:52;14.94;65.28
71206;SHT31;58935;54.498;18.544;2023-10-13T11:38:17;14.96;65.48
71206;SHT31;58935;54.498;18.544;2023-10-13T11:40:53;14.96;65.70
71206;SHT31;58935;54.498;18.544;2023-10-13T11:43:22;14.98;65.79
71206;SHT31;58935;54.498;18.544;2023-10-13T11:45:49;15.03;66.03
71206;SHT31;58935;54.498;18.544;2023-10-13T11:48:18;15.06;66.21
71206;SHT31;58935;54.498;18.544;2023-10-13T11:50:58;15.10;66.29
71206;SHT31;58935;54.498;18.544;2023-10-13T11:53:24;15.14;66.41
71206;SHT31;58935;54.498;18.544;2023-10-13T11:55:52;15.18;66.55
71206;SHT31;58935;54.498;18.544;2023-10-13T11:58:18;15.21;66.61
71206;SHT31;58935;54.498;18.544;2023-10-13T12:00:43;15.26;66.60
71206;SHT31;58935;54.498;18.544;2023-10-13T12:03:11;15.30;66.68
71206;SHT31;58935;54.498;18.544;2023-10-13T12:05:39;15.38;66.79
71206;SHT31;58935;54.498;18.544;2023-10-13T12:08:14;15.50;66.74
71206;SHT31;58935;54.498;18.544;2023-10-13T12:10:47;15.65;66.80
71206;SHT31;58935;54.498;18.544;2023-10-13T12:13:24;15.79;66.59
71206;SHT31;58935;54.498;18.544;2023-10-13T12:15:50;15.88;66.53
71206;SHT31;58935;54.498;18.544;2023-10-13T12:18:17;15.94;66.60
71206;SHT31;58935;54.498;18.544;2023-10-13T12:20:44;16.00;66.70
71206;SHT31;58935;54.498;18.544;2023-10-13T12:23:11;16.07;66.83
71206;SHT31;58935;54.498;18.544;2023-10-13T12:25:41;16.13;66.85
71206;SHT31;58935;54.498;18.544;2023-10-13T12:28:09;16.19;67.00
71206;SHT31;58935;54.498;18.544;2023-10-13T12:30:38;16.26;67.07
71206;SHT31;58935;54.498;18.544;2023-10-13T12:33:07;16.30;67.24
71206;SHT31;58935;54.498;18.544;2023-10-13T12:35:36;16.36;67.45
71206;SHT31;58935;54.498;18.544;2023-10-13T12:38:07;16.41;67.59
71206;SHT31;58935;54.498;18.544;2023-10-13T12:40:41;16.45;67.84
71206;SHT31;58935;54.498;18.544;2023-10-13T12:43:10;16.47;67.94
71206;SHT31;58935;54.498;18.544;2023-10-13T12:45:39;16.51;68.08
71206;SHT31;58935;54.498;18.544;2023-10-13T12:50:55;16.47;68.31
71206;SHT31;58935;54.498;18.544;2023-10-13T12:53:40;16.44;68.59
71206;SHT31;58935;54.498;18.544;2023-10-13T12:56:07;16.45;68.86
71206;SHT31;58935;54.498;18.544;2023-10-13T12:58:36;16.45;68.98
71206;SHT31;58935;54.498;18.544;2023-10-13T13:01:01;16.42;69.19
71206;SHT31;58935;54.498;18.544;2023-10-13T13:03:31;16.40;69.41
71206;SHT31;58935;54.498;18.544;2023-10-13T13:05:58;16.36;69.62
71206;SHT31;58935;54.498;18.544;2023-10-13T13:08:23;16.33;69.83
71206;SHT31;58935;54.498;18.544;2023-10-13T13:10:49;16.28;70.04
71206;SHT31;58935;54.498;18.544;2023-10-13T13:13:16;16.26;70.24
71206;SHT31;58935;54.498;18.544;2023-10-13T13:15:49;16.25;70.42
71206;SHT31;58935;54.498;18.544;2023-10-13T13:18:15;16.23;70.53
71206;SHT31;58935;54.498;18.544;2023-10-13T13:20:40;16.23;70.74
71206;SHT31;58935;54.498;18.544;2023-10-13T13:23:09;16.22;70.98
71206;SHT31;58935;54.498;18.544;2023-10-13T13:25:37;16.19;71.31
71206;SHT31;58935;54.498;18.544;2023-10-13T13:28:07;16.18;71.67
71206;SHT31;58935;54.498;18.544;2023-10-13T13:30:35;16.14;72.03
71206;SHT31;58935;54.498;18.544;2023-10-13T13:33:02;16.07;72.41
71206;SHT31;58935;54.498;18.544;2023-10-13T13:35:35;16.02;72.76
71206;SHT31;58935;54.498;18.544;2023-10-13T13:38:04;15.93;73.22
71206;SHT31;58935;54.498;18.544;2023-10-13T13:40:37;15.86;73.51
71206;SHT31;58935;54.498;18.544;2023-10-13T13:43:03;15.81;73.86
71206;SHT31;58935;54.498;18.544;2023-10-13T13:45:28;15.77;74.19
71206;SHT31;58935;54.498;18.544;2023-10-13T13:47:53;15.74;74.51
71206;SHT31;58935;54.498;18.544;2023-10-13T13:50:23;15.71;74.81
71206;SHT31;58935;54.498;18.544;2023-10-13T13:52:51;15.67;75.15
71206;SHT31;58935;54.498;18.544;2023-10-13T13:55:18;15.64;75.61
71206;SHT31;58935;54.498;18.544;2023-10-13T13:57:45;15.57;76.07
71206;SHT31;58935;54.498;18.544;2023-10-13T14:00:11;15.50;76.47
71206;SHT31;58935;54.498;18.544;2023-10-13T14:02:42;15.44;76.80
71206;SHT31;58935;54.498;18.544;2023-10-13T14:05:12;15.39;76.98
71206;SHT31;58935;54.498;18.544;2023-10-13T14:07:41;15.32;77.29
71206;SHT31;58935;54.498;18.544;2023-10-13T14:10:08;15.29;77.45
71206;SHT31;58935;54.498;18.544;2023-10-13T14:12:41;15.27;77.62
71206;SHT31;58935;54.498;18.544;2023-10-13T14:15:07;15.26;77.75
71206;SHT31;58935;54.498;18.544;2023-10-13T14:17:45;15.22;78.06
71206;SHT31;58935;54.498;18.544;2023-10-13T14:20:14;15.19;78.28
71206;SHT31;58935;54.498;18.544;2023-10-13T14:22:44;15.14;78.45
71206;SHT31;58935;54.498;18.544;2023-10-13T14:25:14;15.11;78.55
71206;SHT31;58935;54.498;18.544;2023-10-13T14:27:41;15.09;78.70
71206;SHT31;58935;54.498;18.544;2023-10-13T14:30:07;15.08;78.82
71206;SHT31;58935;54.498;18.544;2023-10-13T14:32:33;15.07;78.99
71206;SHT31;58935;54.498;18.544;2023-10-13T14:35:05;15.06;79.34
71206;SHT31;58935;54.498;18.544;2023-10-13T14:37:39;15.05;79.55
71206;SHT31;58935;54.498;18.544;2023-10-13T14:40:06;15.03;79.73
71206;SHT31;58935;54.498;18.544;2023-10-13T14:42:36;15.03;79.95
71206;SHT31;58935;54.498;18.544;2023-10-13T14:45:05;15.01;80.21
71206;SHT31;58935;54.498;18.544;2023-10-13T14:47:37;15.00;80.59
71206;SHT31;58935;54.498;18.544;2023-10-13T14:50:04;14.99;80.76
71206;SHT31;58935;54.498;18.544;2023-10-13T14:52:30;14.98;80.94
71206;SHT31;58935;54.498;18.544;2023-10-13T14:54:57;14.98;81.13
71206;SHT31;58935;54.498;18.544;2023-10-13T14:57:23;14.99;81.34
71206;SHT31;58935;54.498;18.544;2023-10-13T14:59:51;14.98;81.65
71206;SHT31;58935;54.498;18.544;2023-10-13T15:02:17;14.99;81.83
71206;SHT31;58935;54.498;18.544;2023-10-13T15:04:43;15.00;82.16
71206;SHT31;58935;54.498;18.544;2023-10-13T15:07:08;15.01;82.38
71206;SHT31;58935;54.498;18.544;2023-10-13T15:09:33;15.01;82.63
71206;SHT31;58935;54.498;18.544;2023-10-13T15:11:59;15.02;82.87
71206;SHT31;58935;54.498;18.544;2023-10-13T15:14:24;15.04;83.08
71206;SHT31;58935;54.498;18.544;2023-10-13T15:16:50;15.04;83.17
71206;SHT31;58935;54.498;18.544;2023-10-13T15:19:17;15.07;83.47
71206;SHT31;58935;54.498;18.544;2023-10-13T15:21:42;15.08;83.66
71206;SHT31;58935;54.498;18.544;2023-10-13T15:24:14;15.11;83.85
71206;SHT31;58935;54.498;18.544;2023-10-13T15:26:41;15.13;83.91
71206;SHT31;58935;54.498;18.544;2023-10-13T15:29:13;15.15;84.07
71206;SHT31;58935;54.498;18.544;2023-10-13T15:31:41;15.18;84.19
71206;SHT31;58935;54.498;18.544;2023-10-13T15:34:19;15.20;84.33
71206;SHT31;58935;54.498;18.544;2023-10-13T15:36:44;15.24;84.46
71206;SHT31;58935;54.498;18.544;2023-10-13T15:39:11;15.26;84.55
71206;SHT31;58935;54.498;18.544;2023-10-13T15:41:40;15.29;84.80
71206;SHT31;58935;54.498;18.544;2023-10-13T15:46:38;15.36;85.08
71206;SHT31;58935;54.498;18.544;2023-10-13T15:49:03;15.39;85.26
71206;SHT31;58935;54.498;18.544;2023-10-13T15:51:32;15.42;85.36
71206;SHT31;58935;54.498;18.544;2023-10-13T15:53:59;15.45;85.53
71206;SHT31;58935;54.498;18.544;2023-10-13T15:56:26;15.48;85.61
71206;SHT31;58935;54.498;18.544;2023-10-13T15:58:51;15.50;85.66
71206;SHT31;58935;54.498;18.544;2023-10-13T16:01:16;15.54;85.65
71206;SHT31;58935;54.498;18.544;2023-10-13T16:03:44;15.57;85.65
71206;SHT31;58935;54.498;18.544;2023-10-13T16:06:15;15.61;85.73
71206;SHT31;58935;54.498;18.544;2023-10-13T16:08:41;15.66;85.76
71206;SHT31;58935;54.498;18.544;2023-10-13T16:11:08;15.70;85.90
71206;SHT31;58935;54.498;18.544;2023-10-13T16:13:40;15.76;86.06
71206;SHT31;58935;54.498;18.544;2023-10-13T16:16:13;15.83;86.04
71206;SHT31;58935;54.498;18.544;2023-10-13T16:18:43;15.87;85.90
71206;SHT31;58935;54.498;18.544;2023-10-13T16:21:10;15.93;85.94
71206;SHT31;58935;54.498;18.544;2023-10-13T16:23:38;15.98;85.89
71206;SHT31;58935;54.498;18.544;2023-10-13T16:26:05;16.03;85.88
71206;SHT31;58935;54.498;18.544;2023-10-13T16:28:34;16.08;85.79
71206;SHT31;58935;54.498;18.544;2023-10-13T16:31:01;16.12;85.73
71206;SHT31;58935;54.498;18.544;2023-10-13T16:33:27;16.17;85.83
71206;SHT31;58935;54.498;18.544;2023-10-13T16:35:54;16.23;85.77
71206;SHT31;58935;54.498;18.544;2023-10-13T16:38:21;16.29;85.85
71206;SHT31;58935;54.498;18.544;2023-10-13T16:40:50;16.35;85.69